Time;durP1;ratioP1;P1;durP2;ratioP2;P2;SDS_P1;SDS_P2;PMS_P1;PMS_P2;Temp;Humidity;BMP_temperature;BMP_pressure;BME280_temperature;BME280_humidity;BME280_pressure;Samples;Min_cycle;Max_cycle;Signal;HPM_P1;HPM_P2
2020/12/19 00:02:07;;;;;;;26.33;4.00;;;10.30;99.90;;;;;;5087356;28;20032;-83
2020/12/19 00:04:34;;;;;;;33.88;5.05;;;10.40;99.90;;;;;;5087549;28;20158;-83
2020/12/19 00:07:00;;;;;;;21.98;3.95;;;10.40;99.90;;;;;;5087267;28;20043;-82
2020/12/19 00:09:25;;;;;;;29.70;3.83;;;10.40;99.90;;;;;;5087050;28;20327;-83
2020/12/19 00:11:54;;;;;;;34.30;4.60;;;10.40;99.90;;;;;;5070186;28;20036;-81
2020/12/19 00:14:20;;;;;;;22.20;4.30;;;10.30;99.90;;;;;;5088125;28;20024;-82
2020/12/19 00:16:46;;;;;;;30.63;4.53;;;10.20;99.90;;;;;;5070346;28;20062;-82
2020/12/19 00:19:12;;;;;;;26.98;4.70;;;10.10;99.90;;;;;;5087238;28;20078;-82
2020/12/19 00:21:38;;;;;;;26.80;5.97;;;10.10;99.90;;;;;;5070207;28;20048;-82
2020/12/19 00:24:05;;;;;;;31.98;5.38;;;10.10;99.90;;;;;;5087238;28;20036;-82
2020/12/19 00:26:36;;;;;;;34.15;5.68;;;10.10;99.90;;;;;;5087394;28;20406;-83
2020/12/19 00:29:03;;;;;;;31.02;5.18;;;10.10;99.90;;;;;;5086566;28;20031;-83
2020/12/19 00:31:29;;;;;;;19.75;2.95;;;10.10;99.90;;;;;;5070240;28;20530;-81
2020/12/19 00:33:55;;;;;;;25.42;5.07;;;10.20;99.90;;;;;;5070081;28;20119;-83
2020/12/19 00:36:21;;;;;;;22.55;3.92;;;10.20;99.90;;;;;;5069987;28;20130;-82
2020/12/19 00:38:47;;;;;;;18.20;2.60;;;10.10;99.90;;;;;;5088321;28;20030;-80
2020/12/19 00:41:21;;;;;;;24.38;4.05;;;10.10;99.90;;;;;;5069838;28;20046;-80
2020/12/19 00:43:47;;;;;;;21.83;3.80;;;10.10;99.90;;;;;;5086927;28;20028;-83
2020/12/19 00:46:14;;;;;;;13.88;4.03;;;10.10;99.90;;;;;;5086866;28;20032;-82
2020/12/19 00:48:41;;;;;;;23.23;3.97;;;10.10;99.90;;;;;;5086845;28;20498;-81
2020/12/19 00:51:13;;;;;;;21.35;4.65;;;10.10;99.90;;;;;;5086870;28;20032;-83
2020/12/19 00:53:44;;;;;;;15.50;2.75;;;10.10;99.90;;;;;;5086603;28;20055;-82
2020/12/19 00:56:21;;;;;;;19.90;3.97;;;10.10;99.90;;;;;;5086564;28;20024;-80
2020/12/19 00:58:47;;;;;;;18.20;2.60;;;10.00;99.90;;;;;;5086786;28;20050;-83
2020/12/19 01:01:14;;;;;;;19.35;2.75;;;10.00;99.90;;;;;;5087828;28;20048;-80
2020/12/19 01:03:40;;;;;;;17.65;3.80;;;10.00;99.90;;;;;;5086558;28;20035;-83
2020/12/19 01:06:07;;;;;;;14.60;2.65;;;10.00;99.90;;;;;;5086631;28;20024;-82
2020/12/19 01:08:32;;;;;;;13.63;2.15;;;10.00;99.90;;;;;;5087883;28;20020;-82
2020/12/19 01:10:58;;;;;;;10.80;2.33;;;10.00;99.90;;;;;;5086519;28;20498;-80
2020/12/19 01:13:24;;;;;;;18.05;3.30;;;10.00;99.90;;;;;;5069579;28;20031;-81
2020/12/19 01:15:50;;;;;;;12.25;2.70;;;10.10;99.90;;;;;;5086663;28;20062;-82
2020/12/19 01:18:18;;;;;;;13.70;2.17;;;10.20;99.90;;;;;;5086566;28;20491;-82
2020/12/19 01:20:44;;;;;;;12.95;2.33;;;10.20;99.90;;;;;;5086561;28;20051;-80
2020/12/19 01:23:10;;;;;;;18.73;3.08;;;10.20;99.90;;;;;;5087616;28;20072;-80
2020/12/19 01:25:36;;;;;;;11.60;1.33;;;10.30;99.90;;;;;;5086345;28;20088;-81
2020/12/19 01:28:01;;;;;;;10.40;1.77;;;10.20;99.90;;;;;;5069338;28;20024;-81
2020/12/19 01:30:27;;;;;;;12.68;1.75;;;10.20;99.90;;;;;;5086385;28;20032;-81
2020/12/19 01:32:53;;;;;;;11.48;1.63;;;10.10;99.90;;;;;;5086636;28;20029;-82
2020/12/19 01:35:19;;;;;;;6.82;1.77;;;10.10;99.90;;;;;;5069538;28;20035;-81
2020/12/19 01:37:45;;;;;;;8.45;2.10;;;10.00;99.90;;;;;;5086803;28;20028;-81
2020/12/19 01:40:10;;;;;;;15.45;2.03;;;10.00;99.90;;;;;;5069896;28;20620;-80
2020/12/19 01:42:36;;;;;;;11.38;1.30;;;9.90;99.90;;;;;;5073463;28;20024;-83
2020/12/19 01:45:03;;;;;;;7.70;1.30;;;9.90;99.90;;;;;;5090287;28;20077;-82
2020/12/19 01:47:33;;;;;;;5.72;1.25;;;9.90;99.90;;;;;;5090452;28;20561;-81
2020/12/19 01:50:00;;;;;;;8.50;1.17;;;9.90;99.90;;;;;;5090721;28;20051;-80
2020/12/19 01:52:29;;;;;;;5.45;1.23;;;9.80;99.90;;;;;;5090203;28;20352;-83
2020/12/19 01:54:57;;;;;;;10.52;1.20;;;9.80;99.90;;;;;;5090176;28;20030;-81
2020/12/19 01:57:26;;;;;;;5.78;1.23;;;9.80;99.90;;;;;;5089963;28;20042;-83
2020/12/19 01:59:52;;;;;;;7.13;1.52;;;9.80;99.90;;;;;;5089995;28;20382;-81
2020/12/19 02:02:22;;;;;;;4.78;1.00;;;9.70;99.90;;;;;;5090058;28;20033;-82
2020/12/19 02:04:48;;;;;;;5.68;1.05;;;9.80;99.90;;;;;;5089827;28;20056;-80
2020/12/19 02:07:14;;;;;;;5.28;1.40;;;9.80;99.90;;;;;;5090056;28;20067;-81
2020/12/19 02:09:41;;;;;;;7.78;1.00;;;9.80;99.90;;;;;;5073154;28;20346;-82
2020/12/19 02:12:09;;;;;;;6.50;1.10;;;9.80;99.90;;;;;;5089613;28;20515;-81
2020/12/19 02:14:35;;;;;;;3.50;0.98;;;9.80;99.90;;;;;;5073012;28;20074;-83
2020/12/19 02:17:08;;;;;;;7.38;1.27;;;9.80;99.90;;;;;;5089802;28;20028;-80
2020/12/19 02:19:35;;;;;;;8.75;1.30;;;9.80;99.90;;;;;;5089806;28;20035;-82
2020/12/19 02:22:01;;;;;;;5.10;1.20;;;9.80;99.90;;;;;;5089478;28;20109;-82
2020/12/19 02:24:28;;;;;;;5.53;0.90;;;9.70;99.80;;;;;;5091022;28;20036;-80
2020/12/19 02:26:55;;;;;;;5.85;2.05;;;9.80;99.90;;;;;;5072435;28;20101;-83
2020/12/19 02:29:22;;;;;;;5.65;0.88;;;9.80;99.70;;;;;;5072480;28;20122;-82
2020/12/19 02:31:49;;;;;;;7.40;1.83;;;9.80;99.60;;;;;;5072575;28;20035;-80
2020/12/19 02:34:15;;;;;;;11.75;1.45;;;9.70;99.60;;;;;;5089362;28;20119;-84
2020/12/19 02:36:41;;;;;;;6.32;0.98;;;9.70;99.50;;;;;;5089313;28;20080;-82
2020/12/19 02:39:08;;;;;;;5.78;1.08;;;9.70;99.60;;;;;;5089458;28;20491;-82
2020/12/19 02:41:35;;;;;;;7.45;1.25;;;9.70;99.60;;;;;;5089464;28;20058;-83
2020/12/19 02:44:01;;;;;;;4.53;0.90;;;9.70;99.60;;;;;;5090438;28;20031;-81
2020/12/19 02:46:26;;;;;;;3.78;0.85;;;9.70;99.60;;;;;;5089351;28;20024;-80
2020/12/19 02:48:52;;;;;;;9.25;1.25;;;9.70;99.60;;;;;;5089492;28;20103;-80
2020/12/19 02:51:18;;;;;;;6.80;1.13;;;9.70;99.60;;;;;;5072209;28;20035;-81
2020/12/19 02:53:44;;;;;;;5.40;0.95;;;9.70;99.50;;;;;;5088311;28;20260;-82
2020/12/19 02:56:09;;;;;;;9.25;1.00;;;9.70;99.50;;;;;;5089016;28;20025;-84
2020/12/19 02:58:35;;;;;;;5.85;1.35;;;9.60;99.50;;;;;;5090404;28;20067;-82
2020/12/19 03:01:01;;;;;;;7.18;1.13;;;9.70;99.50;;;;;;5090200;28;20374;-83
2020/12/19 03:03:26;;;;;;;6.93;1.20;;;9.60;99.50;;;;;;5089030;28;20032;-81
2020/12/19 03:05:52;;;;;;;5.97;1.13;;;9.60;99.50;;;;;;5071922;28;20437;-82
2020/12/19 03:08:18;;;;;;;11.75;1.92;;;9.60;99.60;;;;;;5088647;28;20030;-80
2020/12/19 03:10:44;;;;;;;8.35;1.88;;;9.60;99.60;;;;;;5088572;28;20060;-80
2020/12/19 03:13:10;;;;;;;7.65;1.95;;;9.60;99.80;;;;;;5088915;28;20031;-81
2020/12/19 03:15:36;;;;;;;11.65;1.33;;;9.60;99.60;;;;;;5088476;28;20111;-79
2020/12/19 03:18:01;;;;;;;9.32;1.20;;;9.60;99.50;;;;;;5089927;28;20032;-80
2020/12/19 03:20:27;;;;;;;8.73;1.00;;;9.60;99.50;;;;;;5071844;28;20047;-82
2020/12/19 03:22:53;;;;;;;9.38;1.63;;;9.70;99.50;;;;;;5088240;28;20083;-81
2020/12/19 03:25:18;;;;;;;14.80;1.48;;;9.70;99.40;;;;;;5071659;28;20032;-81
2020/12/19 03:27:44;;;;;;;8.90;1.05;;;9.70;99.40;;;;;;5071591;28;20043;-83
2020/12/19 03:30:10;;;;;;;11.45;1.90;;;9.70;99.40;;;;;;5071587;28;20046;-82
2020/12/19 03:32:36;;;;;;;12.40;2.05;;;9.70;99.40;;;;;;5088265;28;20158;-83
2020/12/19 03:35:02;;;;;;;10.98;1.63;;;9.70;99.40;;;;;;5088169;28;20023;-81
2020/12/19 03:37:28;;;;;;;11.15;2.15;;;9.60;99.40;;;;;;5071249;28;20493;-81
2020/12/19 03:39:53;;;;;;;12.32;1.90;;;9.60;99.40;;;;;;5070971;28;20035;-81
2020/12/19 03:42:19;;;;;;;16.60;2.15;;;9.60;99.40;;;;;;5088029;28;20036;-81
2020/12/19 03:44:45;;;;;;;10.93;1.73;;;9.60;99.40;;;;;;5071117;28;20032;-82
2020/12/19 03:47:11;;;;;;;14.32;2.08;;;9.60;99.50;;;;;;5089245;28;20023;-82
2020/12/19 03:49:36;;;;;;;17.75;1.80;;;9.60;99.50;;;;;;5071002;28;20115;-82
2020/12/19 03:52:02;;;;;;;22.77;2.35;;;9.60;99.50;;;;;;5070925;28;20557;-80
2020/12/19 03:54:28;;;;;;;14.73;2.33;;;9.60;99.50;;;;;;5087970;28;20115;-82
2020/12/19 03:56:53;;;;;;;15.43;2.28;;;9.60;99.50;;;;;;5070821;28;20024;-81
2020/12/19 03:59:20;;;;;;;14.40;2.15;;;9.60;99.50;;;;;;5070850;28;20032;-81
2020/12/19 04:01:46;;;;;;;12.25;2.05;;;9.60;99.60;;;;;;5071271;28;20038;-80
2020/12/19 04:04:12;;;;;;;18.67;2.28;;;9.50;99.60;;;;;;5086828;28;20111;-79
2020/12/19 04:06:37;;;;;;;22.27;3.63;;;9.50;99.70;;;;;;5070745;28;20550;-83
2020/12/19 04:09:03;;;;;;;25.67;2.78;;;9.50;99.80;;;;;;5087728;28;20399;-81
2020/12/19 04:11:29;;;;;;;18.85;2.35;;;9.50;99.80;;;;;;5087428;28;20039;-83
2020/12/19 04:13:55;;;;;;;15.57;2.17;;;9.50;99.90;;;;;;5070649;28;20024;-80
2020/12/19 04:16:20;;;;;;;21.70;3.67;;;9.50;99.90;;;;;;5070758;28;20028;-82
2020/12/19 04:18:46;;;;;;;17.25;2.67;;;9.60;99.90;;;;;;5070673;28;20032;-82
2020/12/19 04:21:12;;;;;;;23.10;3.58;;;9.50;99.90;;;;;;5070235;28;20040;-80
2020/12/19 04:23:37;;;;;;;20.35;3.40;;;9.60;99.90;;;;;;5070299;28;20036;-82
2020/12/19 04:26:03;;;;;;;31.08;3.03;;;9.50;99.90;;;;;;5087185;28;20032;-82
2020/12/19 04:28:29;;;;;;;18.70;2.50;;;9.60;99.90;;;;;;5087115;28;20486;-82
2020/12/19 04:30:55;;;;;;;24.25;3.25;;;9.60;99.90;;;;;;5088306;28;20035;-81
2020/12/19 04:33:21;;;;;;;25.50;3.38;;;9.60;99.90;;;;;;5087143;28;20024;-80
2020/12/19 04:35:47;;;;;;;28.52;3.80;;;9.50;99.90;;;;;;5087034;28;20024;-82
2020/12/19 04:38:13;;;;;;;25.75;3.38;;;9.60;99.90;;;;;;5070114;28;20024;-83
2020/12/19 04:40:39;;;;;;;23.30;3.05;;;9.60;99.90;;;;;;5087210;28;20584;-83
2020/12/19 04:43:17;;;;;;;24.27;3.78;;;9.60;99.90;;;;;;5069982;28;20123;-82
2020/12/19 04:45:44;;;;;;;28.17;3.45;;;9.50;99.90;;;;;;5086924;28;20023;-81
2020/12/19 04:48:10;;;;;;;27.27;3.78;;;9.50;99.90;;;;;;5070172;28;20020;-81
2020/12/19 04:50:39;;;;;;;21.10;3.47;;;9.50;99.90;;;;;;5086738;28;20028;-81
2020/12/19 04:53:31;;;;;;;;;;;9.50;99.90;;;;;;5087146;28;20137;-84
2020/12/19 04:55:59;;;;;;;24.58;3.00;;;9.50;99.90;;;;;;5083553;28;19936;-82
2020/12/19 04:58:25;;;;;;;22.48;3.00;;;9.50;99.90;;;;;;5086905;28;20032;-82
2020/12/19 05:00:50;;;;;;;23.30;3.25;;;9.50;99.90;;;;;;5086857;28;20031;-81
2020/12/19 05:03:16;;;;;;;23.60;3.40;;;9.50;99.90;;;;;;5088012;28;20024;-84
2020/12/19 05:05:43;;;;;;;24.40;3.30;;;9.50;99.90;;;;;;5069973;28;20036;-82
2020/12/19 05:08:10;;;;;;;21.63;3.20;;;9.50;99.90;;;;;;5069759;28;20114;-82
2020/12/19 05:10:36;;;;;;;23.30;3.60;;;9.40;99.90;;;;;;5086688;28;20137;-82
2020/12/19 05:13:02;;;;;;;26.52;4.35;;;9.40;99.90;;;;;;5069735;28;20028;-83
2020/12/19 05:15:27;;;;;;;18.10;3.75;;;9.40;99.90;;;;;;5088377;28;20038;-81
2020/12/19 05:17:58;;;;;;;20.15;3.33;;;9.40;99.90;;;;;;5076377;28;20359;-81
2020/12/19 05:20:28;;;;;;;28.70;3.92;;;9.30;99.90;;;;;;5094623;28;20133;-82
2020/12/19 05:22:54;;;;;;;20.63;2.70;;;9.30;99.90;;;;;;5094322;28;20047;-83
2020/12/19 05:25:22;;;;;;;20.17;3.08;;;9.30;99.90;;;;;;5093163;28;20475;-81
2020/12/19 05:27:48;;;;;;;19.85;3.05;;;9.20;99.90;;;;;;5093378;28;20035;-82
2020/12/19 05:30:15;;;;;;;20.10;4.20;;;9.20;99.90;;;;;;5094561;28;20032;-81
2020/12/19 05:32:52;;;;;;;25.63;4.10;;;9.20;99.90;;;;;;5093480;28;20024;-83
2020/12/19 05:35:20;;;;;;;27.02;4.03;;;9.20;99.90;;;;;;5076049;28;20119;-81
2020/12/19 05:37:56;;;;;;;28.08;4.50;;;9.10;99.90;;;;;;5093467;28;20027;-82
2020/12/19 05:40:24;;;;;;;22.45;3.60;;;9.10;99.90;;;;;;5093132;28;20386;-83
2020/12/19 05:42:50;;;;;;;22.48;3.13;;;9.10;99.90;;;;;;5094358;28;20399;-82
2020/12/19 05:45:17;;;;;;;35.13;5.25;;;9.10;99.90;;;;;;5094401;28;20027;-82
2020/12/19 05:47:43;;;;;;;21.65;2.85;;;9.10;99.90;;;;;;5076438;28;20050;-80
2020/12/19 05:50:09;;;;;;;28.23;4.65;;;9.20;99.90;;;;;;5094287;28;20043;-81
2020/12/19 05:52:39;;;;;;;25.52;4.30;;;9.20;99.90;;;;;;5094228;28;20040;-82
2020/12/19 05:55:10;;;;;;;33.38;3.85;;;9.20;99.90;;;;;;5076136;28;20028;-83
2020/12/19 05:57:37;;;;;;;31.88;3.35;;;9.20;99.90;;;;;;5092891;28;20030;-81
2020/12/19 06:00:12;;;;;;;23.17;3.85;;;9.20;99.90;;;;;;5093328;28;20020;-82
2020/12/19 06:02:38;;;;;;;25.65;3.50;;;9.10;99.90;;;;;;5094299;28;20467;-82
2020/12/19 06:05:09;;;;;;;21.35;3.50;;;9.10;99.90;;;;;;5094348;28;20031;-83
2020/12/19 06:07:40;;;;;;;30.67;4.13;;;9.10;99.90;;;;;;5092869;28;20451;-83
2020/12/19 06:10:08;;;;;;;31.98;4.00;;;9.10;99.90;;;;;;5092733;28;20039;-81
2020/12/19 06:12:55;;;;;;;24.13;4.32;;;9.10;99.90;;;;;;5092790;28;20043;-81
2020/12/19 06:15:39;;;;;;;23.38;3.63;;;9.10;99.90;;;;;;5093963;28;20023;-82
2020/12/19 06:18:15;;;;;;;29.92;4.20;;;9.00;99.90;;;;;;5092815;28;20074;-82
2020/12/19 06:20:41;;;;;;;21.77;3.55;;;9.00;99.80;;;;;;5092826;28;20023;-82
2020/12/19 06:23:15;;;;;;;24.13;4.55;;;9.00;99.80;;;;;;5092706;28;20125;-81
2020/12/19 06:25:42;;;;;;;26.77;3.60;;;9.00;99.80;;;;;;5076006;28;20315;-81
2020/12/19 06:28:09;;;;;;;23.73;3.53;;;9.00;99.80;;;;;;5089170;28;20064;-82
2020/12/19 06:30:35;;;;;;;26.23;5.57;;;9.00;99.80;;;;;;5089623;28;20430;-82
2020/12/19 06:33:11;;;;;;;24.95;3.13;;;9.00;99.90;;;;;;5089227;28;20166;-80
2020/12/19 06:35:38;;;;;;;24.48;3.38;;;9.00;99.60;;;;;;5089409;28;20046;-83
2020/12/19 06:38:04;;;;;;;25.45;4.07;;;9.00;99.60;;;;;;5090720;28;20737;-80
2020/12/19 06:40:39;;;;;;;20.60;3.08;;;9.10;99.60;;;;;;5090646;28;20386;-80
2020/12/19 06:43:11;;;;;;;29.50;2.97;;;9.10;99.60;;;;;;5089309;28;20027;-83
2020/12/19 06:45:37;;;;;;;31.08;4.28;;;9.10;99.50;;;;;;5089144;28;20062;-82
2020/12/19 06:48:02;;;;;;;18.00;3.53;;;9.10;99.50;;;;;;5072586;28;20443;-83
2020/12/19 06:50:58;;;;;;;28.10;4.43;;;9.10;99.50;;;;;;5089250;28;20028;-81
2020/12/19 06:53:25;;;;;;;25.60;3.85;;;9.10;99.50;;;;;;5083791;28;20500;-81
2020/12/19 06:55:51;;;;;;;20.92;3.97;;;9.10;99.40;;;;;;5088939;28;20024;-82
2020/12/19 06:58:31;;;;;;;23.63;3.67;;;9.20;99.50;;;;;;5088976;28;20034;-80
2020/12/19 07:00:57;;;;;;;25.10;3.58;;;9.20;99.50;;;;;;5088814;28;20028;-83
2020/12/19 07:03:41;;;;;;;26.45;5.07;;;9.30;99.40;;;;;;5088868;28;20032;-81
2020/12/19 07:06:14;;;;;;;22.15;3.10;;;9.30;99.30;;;;;;5088569;28;20032;-81
2020/12/19 07:08:44;;;;;;;29.42;4.07;;;9.30;99.10;;;;;;5088615;28;20028;-81
2020/12/19 07:11:41;;;;;;;23.83;3.58;;;9.30;99.20;;;;;;5072213;28;20084;-83
2020/12/19 07:14:14;;;;;;;26.52;4.68;;;9.30;99.20;;;;;;5089920;28;20104;-83
2020/12/19 07:16:45;;;;;;;29.45;3.42;;;9.30;99.20;;;;;;5088582;28;20034;-82
2020/12/19 07:19:27;;;;;;;30.23;4.30;;;9.30;99.20;;;;;;5071802;28;20025;-81
2020/12/19 07:21:57;;;;;;;23.33;4.35;;;9.30;99.40;;;;;;5089585;28;20067;-81
2020/12/19 07:24:24;;;;;;;27.05;3.28;;;9.40;99.50;;;;;;5071881;28;20085;-82
2020/12/19 07:26:51;;;;;;;19.45;3.67;;;9.40;99.30;;;;;;5088591;28;20048;-83
2020/12/19 07:29:22;;;;;;;24.25;4.05;;;9.40;99.20;;;;;;5088333;28;20505;-81
2020/12/19 07:31:54;;;;;;;18.92;3.90;;;9.40;99.20;;;;;;5088261;28;20478;-82
2020/12/19 07:34:20;;;;;;;25.83;3.22;;;9.40;99.20;;;;;;5089774;28;20502;-83
2020/12/19 07:36:48;;;;;;;20.92;3.72;;;9.40;99.10;;;;;;5089465;28;20024;-83
2020/12/19 07:39:18;;;;;;;14.25;2.92;;;9.40;99.10;;;;;;5087930;28;20497;-83
2020/12/19 07:41:44;;;;;;;;;;;9.40;99.00;;;;;;5088534;28;20039;-82
2020/12/19 07:44:13;;;;;;;18.50;2.53;;;9.40;99.10;;;;;;5089444;28;20354;-83
2020/12/19 07:46:49;;;;;;;;;;;9.30;98.90;;;;;;5089705;28;20028;-81
2020/12/19 07:49:31;;;;;;;16.55;2.85;;;9.30;98.90;;;;;;5089325;28;19915;-84
2020/12/19 07:52:08;;;;;;;18.00;2.58;;;9.20;98.80;;;;;;5087830;28;20024;-81
2020/12/19 07:54:35;;;;;;;14.20;3.00;;;9.20;98.80;;;;;;5087776;28;20020;-81
2020/12/19 07:57:02;;;;;;;15.70;2.20;;;9.20;98.70;;;;;;5087744;28;20025;-82
2020/12/19 07:59:29;;;;;;;16.30;2.92;;;9.20;98.70;;;;;;5089315;28;20374;-83
2020/12/19 08:01:55;;;;;;;19.98;2.50;;;9.20;98.70;;;;;;5087420;28;20024;-83
2020/12/19 08:04:21;;;;;;;15.18;2.35;;;9.20;98.70;;;;;;5071146;28;20398;-81
2020/12/19 08:06:48;;;;;;;15.57;2.88;;;9.20;98.70;;;;;;5070522;28;20024;-81
2020/12/19 08:09:20;;;;;;;20.13;3.67;;;9.20;98.80;;;;;;5088828;28;20183;-82
2020/12/19 08:11:48;;;;;;;20.85;2.60;;;9.30;98.80;;;;;;5087609;28;20035;-81
2020/12/19 08:14:18;;;;;;;12.35;2.10;;;9.40;98.90;;;;;;5087486;28;20153;-82
2020/12/19 08:16:45;;;;;;;21.05;3.00;;;9.50;98.90;;;;;;5087209;28;20030;-82
2020/12/19 08:19:14;;;;;;;15.13;2.70;;;9.50;98.80;;;;;;5087432;28;20039;-82
2020/12/19 08:21:44;;;;;;;13.63;2.30;;;9.50;98.80;;;;;;5088426;28;20044;-81
2020/12/19 08:24:10;;;;;;;14.13;2.17;;;9.50;98.90;;;;;;5087389;28;20510;-82
2020/12/19 08:26:36;;;;;;;14.13;2.45;;;9.50;98.90;;;;;;5087353;28;20088;-82
2020/12/19 08:29:07;;;;;;;13.73;2.22;;;9.40;99.00;;;;;;5070392;28;20546;-79
2020/12/19 08:31:37;;;;;;;8.63;1.55;;;9.40;99.00;;;;;;5087177;28;20036;-80
2020/12/19 08:34:05;;;;;;;11.00;2.40;;;9.40;98.90;;;;;;5087111;28;20478;-82
2020/12/19 08:36:32;;;;;;;11.50;2.13;;;9.40;99.00;;;;;;5088507;28;20020;-81
2020/12/19 08:39:16;;;;;;;12.23;2.15;;;9.30;99.10;;;;;;5086653;28;20027;-81
2020/12/19 08:41:42;;;;;;;15.88;4.00;;;9.30;99.30;;;;;;5088231;28;20028;-82
2020/12/19 08:44:22;;;;;;;15.88;2.55;;;9.30;99.30;;;;;;5087998;28;20466;-81
2020/12/19 08:47:01;;;;;;;12.73;2.33;;;9.30;99.30;;;;;;5086488;28;20031;-81
2020/12/19 08:49:27;;;;;;;7.57;1.77;;;9.30;99.30;;;;;;5088204;28;20103;-83
2020/12/19 08:51:53;;;;;;;17.65;2.70;;;9.40;99.30;;;;;;5069384;28;20390;-80
2020/12/19 08:54:19;;;;;;;9.30;1.10;;;9.40;99.30;;;;;;5069967;28;20020;-80
2020/12/19 08:56:44;;;;;;;7.97;1.27;;;9.40;99.30;;;;;;5069808;28;20114;-82
2020/12/19 08:59:10;;;;;;;9.82;1.23;;;9.40;99.20;;;;;;5069471;28;20097;-81
2020/12/19 09:01:37;;;;;;;5.85;0.93;;;9.50;99.10;;;;;;5069914;28;20040;-80
2020/12/19 09:04:09;;;;;;;7.13;1.00;;;9.50;98.90;;;;;;5087866;28;20034;-82
2020/12/19 09:06:51;;;;;;;4.18;0.98;;;9.50;98.90;;;;;;5087877;28;20040;-81
2020/12/19 09:09:19;;;;;;;6.38;1.10;;;9.60;98.70;;;;;;5086165;28;20017;-81
2020/12/19 09:11:45;;;;;;;2.70;0.40;;;9.60;98.60;;;;;;5069421;28;20121;-83
2020/12/19 09:14:12;;;;;;;6.13;1.05;;;9.60;98.50;;;;;;5069914;28;20051;-82
2020/12/19 09:16:53;;;;;;;6.57;1.20;;;9.70;98.40;;;;;;5086350;28;20539;-81
2020/12/19 09:19:19;;;;;;;6.97;0.90;;;9.70;98.20;;;;;;5069945;28;20086;-80
2020/12/19 09:21:59;;;;;;;8.48;1.25;;;9.70;98.10;;;;;;5086179;28;20047;-81
2020/12/19 09:24:25;;;;;;;6.00;0.88;;;9.70;97.90;;;;;;5088162;28;20020;-82
2020/12/19 09:26:51;;;;;;;7.97;1.00;;;9.80;97.90;;;;;;5069605;28;20040;-80
2020/12/19 09:29:16;;;;;;;3.92;0.80;;;9.80;97.90;;;;;;5086557;28;20123;-80
2020/12/19 09:31:42;;;;;;;9.43;1.23;;;9.80;97.80;;;;;;5086072;28;20032;-80
2020/12/19 09:34:08;;;;;;;4.78;1.35;;;9.90;97.60;;;;;;5086219;28;20032;-83
2020/12/19 09:36:34;;;;;;;5.47;0.90;;;9.90;97.50;;;;;;5087430;28;20024;-81
2020/12/19 09:39:00;;;;;;;10.88;2.05;;;10.00;97.50;;;;;;5085915;28;20081;-82
2020/12/19 09:41:26;;;;;;;4.53;1.20;;;10.00;97.30;;;;;;5069110;28;20029;-80
2020/12/19 09:43:52;;;;;;;7.18;1.45;;;10.00;97.20;;;;;;5069789;28;20131;-80
2020/12/19 09:46:17;;;;;;;5.25;0.95;;;10.00;97.10;;;;;;5085711;28;20109;-81
2020/12/19 09:48:43;;;;;;;4.32;0.90;;;10.10;97.20;;;;;;5069540;28;20028;-80
2020/12/19 09:51:09;;;;;;;2.53;0.80;;;10.10;97.10;;;;;;5086406;28;20035;-81
2020/12/19 09:53:35;;;;;;;5.18;1.02;;;10.20;97.20;;;;;;5069605;28;20101;-80
2020/12/19 09:56:01;;;;;;;2.95;0.70;;;10.20;97.00;;;;;;5086291;28;20024;-81
2020/12/19 09:58:27;;;;;;;5.18;0.82;;;10.20;96.60;;;;;;5086483;28;20031;-81
2020/12/19 10:00:52;;;;;;;3.13;0.80;;;10.20;96.50;;;;;;5086688;28;20043;-81
2020/12/19 10:03:18;;;;;;;3.58;1.25;;;10.10;96.70;;;;;;5088061;28;20020;-81
2020/12/19 10:05:46;;;;;;;4.72;0.80;;;10.40;97.50;;;;;;5074981;28;20032;-79
2020/12/19 10:08:12;;;;;;;5.95;1.92;;;11.00;97.30;;;;;;5091554;28;20034;-78
2020/12/19 10:10:38;;;;;;;2.20;0.60;;;11.50;96.80;;;;;;5090944;28;20162;-79
2020/12/19 10:13:04;;;;;;;5.13;1.10;;;12.00;96.20;;;;;;5092468;28;20028;-81
2020/12/19 10:15:30;;;;;;;4.38;1.40;;;12.30;95.00;;;;;;5075259;28;20034;-81
2020/12/19 10:17:56;;;;;;;6.63;1.33;;;12.30;94.00;;;;;;5092062;28;20031;-81
2020/12/19 10:20:21;;;;;;;6.15;0.95;;;12.10;93.60;;;;;;5092353;28;20099;-81
2020/12/19 10:22:47;;;;;;;4.82;0.80;;;12.00;93.80;;;;;;5091724;28;20456;-82
2020/12/19 10:25:13;;;;;;;3.47;0.77;;;12.20;94.10;;;;;;5091703;28;20103;-80
2020/12/19 10:27:39;;;;;;;7.88;0.95;;;12.50;93.90;;;;;;5091636;28;20031;-83
2020/12/19 10:30:05;;;;;;;3.78;1.00;;;12.90;94.00;;;;;;5093279;28;20065;-80
2020/12/19 10:32:31;;;;;;;4.25;0.80;;;13.30;93.00;;;;;;5093302;28;20471;-81
2020/12/19 10:34:57;;;;;;;4.20;0.93;;;13.60;92.90;;;;;;5100259;28;20027;-82
2020/12/19 10:37:23;;;;;;;6.50;2.70;;;13.90;92.30;;;;;;5093800;28;20492;-80
2020/12/19 10:39:49;;;;;;;5.63;1.10;;;14.10;92.00;;;;;;5091671;28;20025;-82
2020/12/19 10:42:14;;;;;;;6.60;1.20;;;14.30;91.30;;;;;;5092915;28;20020;-80
2020/12/19 10:44:40;;;;;;;8.73;2.22;;;14.20;90.80;;;;;;5091137;28;20069;-80
2020/12/19 10:47:06;;;;;;;7.90;1.30;;;14.10;91.00;;;;;;5092360;28;20073;-81
2020/12/19 10:49:32;;;;;;;7.15;1.35;;;14.20;90.80;;;;;;5092279;28;20438;-79
2020/12/19 10:52:02;;;;;;;6.63;1.20;;;14.30;91.00;;;;;;5090536;28;20077;-81
2020/12/19 10:54:28;;;;;;;10.15;1.40;;;14.50;90.30;;;;;;5092084;28;20099;-82
2020/12/19 10:56:54;;;;;;;5.10;1.00;;;14.40;89.40;;;;;;5090383;28;20099;-82
2020/12/19 10:59:20;;;;;;;9.73;1.63;;;14.30;89.30;;;;;;5074655;28;20025;-82
2020/12/19 11:01:46;;;;;;;10.90;1.50;;;14.30;89.60;;;;;;5091701;28;20406;-81
2020/12/19 11:04:12;;;;;;;7.22;1.20;;;14.20;89.10;;;;;;5093611;28;20020;-85
2020/12/19 11:06:38;;;;;;;6.00;1.52;;;14.00;88.30;;;;;;5090433;28;20024;-77
2020/12/19 11:09:04;;;;;;;9.95;1.77;;;13.90;88.70;;;;;;5091499;28;20386;-80
2020/12/19 11:11:29;;;;;;;7.97;1.65;;;13.90;89.10;;;;;;5075025;28;20032;-83
2020/12/19 11:13:56;;;;;;;10.50;1.92;;;13.90;88.80;;;;;;5090681;28;20054;-82
2020/12/19 11:16:29;;;;;;;8.20;1.90;;;13.90;88.00;;;;;;5091793;28;20024;-80
2020/12/19 11:18:55;;;;;;;10.00;2.03;;;14.00;88.00;;;;;;5092739;28;20382;-78
2020/12/19 11:21:22;;;;;;;12.00;2.30;;;13.90;87.20;;;;;;5092757;28;20024;-80
2020/12/19 11:23:49;;;;;;;7.78;1.75;;;13.70;87.30;;;;;;5091015;28;20048;-83
2020/12/19 11:26:20;;;;;;;6.35;1.20;;;13.80;88.30;;;;;;5091014;28;20405;-82
2020/12/19 11:28:48;;;;;;;7.47;1.85;;;14.10;87.90;;;;;;5090959;28;20020;-81
2020/12/19 11:31:14;;;;;;;11.23;2.42;;;14.30;87.80;;;;;;5091192;28;20032;-80
2020/12/19 11:33:40;;;;;;;9.10;1.38;;;14.30;86.00;;;;;;5092886;28;20421;-80
2020/12/19 11:36:05;;;;;;;13.48;2.05;;;14.00;84.20;;;;;;5090422;28;20152;-81
2020/12/19 11:38:31;;;;;;;11.27;2.40;;;13.50;84.20;;;;;;5091411;28;20097;-83
2020/12/19 11:40:57;;;;;;;12.43;2.63;;;13.10;85.10;;;;;;5090189;28;20458;-82
2020/12/19 11:43:23;;;;;;;11.55;2.30;;;12.70;85.80;;;;;;5091898;28;20024;-82
2020/12/19 11:45:50;;;;;;;16.75;2.80;;;12.30;86.60;;;;;;5091273;28;20200;-80
2020/12/19 11:48:16;;;;;;;9.57;1.88;;;12.00;87.60;;;;;;5091211;28;20024;-79
2020/12/19 11:50:41;;;;;;;11.35;2.08;;;11.70;88.40;;;;;;5090332;28;20028;-81
2020/12/19 11:53:07;;;;;;;9.05;1.92;;;11.50;89.10;;;;;;5072997;28;20028;-78
2020/12/19 11:55:33;;;;;;;12.27;2.17;;;11.30;90.00;;;;;;5090419;28;20368;-79
2020/12/19 11:57:59;;;;;;;8.10;1.40;;;11.40;90.90;;;;;;5089562;28;20429;-83
2020/12/19 12:00:25;;;;;;;10.65;1.60;;;11.80;91.50;;;;;;5089795;28;20425;-80
2020/12/19 12:02:50;;;;;;;7.60;1.90;;;12.30;91.30;;;;;;5071794;28;20146;-82
2020/12/19 12:05:16;;;;;;;9.35;2.20;;;12.70;91.00;;;;;;5088463;28;20500;-81
2020/12/19 12:07:42;;;;;;;10.15;2.17;;;13.10;90.90;;;;;;5089348;28;20133;-82
2020/12/19 12:10:07;;;;;;;9.13;1.77;;;13.60;90.30;;;;;;5089265;28;20093;-83
2020/12/19 12:12:33;;;;;;;11.38;1.88;;;14.00;89.20;;;;;;5072252;28;20577;-83
2020/12/19 12:14:59;;;;;;;10.02;2.22;;;14.10;86.80;;;;;;5089064;28;20104;-83
2020/12/19 12:17:25;;;;;;;11.55;2.28;;;13.90;85.10;;;;;;5088203;28;20085;-85
2020/12/19 12:19:51;;;;;;;11.20;2.45;;;13.50;84.60;;;;;;5089207;28;20514;-81
2020/12/19 12:22:16;;;;;;;12.02;1.92;;;13.10;84.70;;;;;;5089960;28;20059;-82
2020/12/19 12:24:42;;;;;;;8.20;2.45;;;12.60;85.40;;;;;;5089870;28;20035;-82
2020/12/19 12:27:08;;;;;;;13.40;2.13;;;12.20;86.40;;;;;;5089062;28;20111;-81
2020/12/19 12:29:33;;;;;;;12.57;2.08;;;11.90;87.50;;;;;;5090385;28;20040;-79
2020/12/19 12:31:59;;;;;;;14.52;2.30;;;11.60;88.60;;;;;;5072180;28;20137;-81
2020/12/19 12:34:25;;;;;;;8.82;1.67;;;11.40;89.40;;;;;;5072691;28;20024;-82
2020/12/19 12:36:50;;;;;;;5.93;1.52;;;11.20;90.00;;;;;;5074241;28;20475;-80
2020/12/19 12:39:16;;;;;;;5.15;1.80;;;11.10;90.30;;;;;;5074008;28;20066;-78
2020/12/19 12:41:46;;;;;;;13.75;2.20;;;11.00;90.60;;;;;;5091173;28;20036;-81
2020/12/19 12:44:12;;;;;;;11.40;1.77;;;10.90;90.90;;;;;;5089956;28;20061;-83
2020/12/19 12:46:38;;;;;;;9.63;1.95;;;11.00;91.10;;;;;;5090147;28;20469;-80
2020/12/19 12:49:04;;;;;;;11.57;2.60;;;11.00;91.30;;;;;;5090953;28;20044;-83
2020/12/19 12:51:29;;;;;;;11.38;1.80;;;11.10;91.30;;;;;;5090301;28;20028;-82